Torrey, Utah
Current Conditions -  °F | °C
As of 4:53 PM on Sunday 23 Nov 2014 (Local Time) from KBCE Reporting Station
Clear Clear  
Wind Chill: 16°   Ceiling: Unl
Heat Index: 26°   Visibility: 10mi
Dew Point: 13°   Wind: 10mph
Humidity: 58%   Direction: 310°NW
Pressure: 30.19"   Gusts: NA
Location:  38.3°N, 111.42°W
Report Text: KBCE 232353Z AUTO 31009KT 10SM CLR M03/M11 A3019 RMK AO2 SLP216 T10331106 11006 21033 53014
Loading
Personal Weather Stations






























Interactive Weather Map New forecast layout! Learn more

10-Day Weather Forecast

Advertisements
Track Severe Weather on mobile